This is the latest recevied weather packets stored in our database for station/object KC8YYF. If no packets are shown the sender has not sent any weather packets the latest 10 day(s).
| Time | Temp. | Humidity | Pressure | Rain* | Wind** | Luminosity | Snow |
|---|---|---|---|---|---|---|---|
| 1777811479 | 2.22° C | 97% | 1019.1 hPa | 0 mm | - | 24 W/m² | - |
| 1777811175 | 1.67° C | 97% | 1019.2 hPa | 0 mm | - | 26 W/m² | - |
| 1777810873 | 1.67° C | 98% | 1019.2 hPa | 0 mm | - | 23 W/m² | - |
| 1777810569 | 1.11° C | 98% | 1019.3 hPa | 0 mm | - | 22 W/m² | - |
| 1777810266 | 1.67° C | 98% | 1019 hPa | 0 mm | - | 32 W/m² | - |
| 1777809962 | 1.11° C | 98% | 1019 hPa | 0 mm | - | 21 W/m² | - |
| 1777809660 | 0.56° C | 98% | 1019.1 hPa | 0 mm | - | 17 W/m² | - |
| 1777809358 | 0.56° C | 98% | 1019.1 hPa | 0 mm | - | 15 W/m² | - |
| 1777809055 | 0.56° C | 98% | 1019 hPa | 0 mm | - | 13 W/m² | - |
| 1777808753 | 0.56° C | 98% | 1018.9 hPa | 0 mm | - | 13 W/m² | - |
| 1777808449 | 0° C | 98% | 1019 hPa | 0 mm | - | 11 W/m² | - |
| 1777808147 | 0.56° C | 98% | 1018.9 hPa | 0 mm | - | 10 W/m² | - |
| 1777807845 | 0° C | 98% | 1018.8 hPa | 0 mm | - | 9 W/m² | - |
| 1777807543 | 0° C | 98% | 1018.7 hPa | 0 mm | - | 7 W/m² | - |
| 1777807239 | 0° C | 98% | 1018.6 hPa | 0 mm | - | 7 W/m² | - |
| 1777806936 | 0° C | 98% | 1018.7 hPa | 0 mm | - | 7 W/m² | - |
| 1777806632 | 0° C | 98% | 1018.5 hPa | 0 mm | - | 7 W/m² | - |
| 1777806328 | 0° C | 98% | 1018.7 hPa | 0 mm | - | 6 W/m² | - |
| 1777806025 | 0° C | 98% | 1018.3 hPa | 0 mm | - | 4 W/m² | - |
| 1777805721 | 0° C | 98% | 1018.2 hPa | 0 mm | - | 4 W/m² | - |
| 1777805419 | 0° C | 98% | 1018.1 hPa | 0 mm | - | 2 W/m² | - |
| 1777805117 | 0° C | 98% | 1018.2 hPa | 0 mm | - | 2 W/m² | - |
| 1777804814 | 0° C | 98% | 1018.1 hPa | 0 mm | - | 0 W/m² | - |
| 1777804512 | 0° C | 98% | 1018.2 hPa | 0 mm | - | 0 W/m² | - |
| 1777804209 | 0° C | 98% | 1018 hPa | 0 mm | - | 0 W/m² | - |
* Rain latest hour (hover to see other rain measurements)
** Current wind speed in m/s (hover to see current wind gust speed)